Main page
METAR-TAF:

METAR-TAF

Airports :

Larnaca, Cyprus

Larnaca International Airport

latitude: 34-53N, longitude: 033-38E, elevation: 2 m

Current weather observation

The report was made 31 minutes ago, at 19:00 UTC
Wind 6 kt from the West/Northwest
Temperature 15°C
Humidity 100%
Pressure 1020 hPa
Visibility 10 km or more
Scattered clouds at a height of 2500 ft

METAR: LCLK 171900Z 30006KT 9999 SCT025 15/15 Q1020 NOSIG

Time: 21:31 (19:31 UTC)

Forecast

The report was made 2 hours and 1 minutes ago, at 17:30 UTC
Forecast valid from 17 at 18 UTC to 18 at 18 UTC
Wind 6 kt from the Northwest
Visibility 10 km or more
Few clouds at a height of 2500 ft
Becoming
from 18 at 07 UTC to 18 at 10 UTC
Wind 10 kt from the South

TAF: LCLK 171730Z 1718/1818 32006KT 9999 FEW025 BECMG 1807/1810 18010KT

Weather observations and forecasts of more than 4000 airports (METAR and TAF reports).

The available stations are represented by yellow and red dots on the map.

Hover mouse over dot to see the name of the station.

Then click to see weather observations and forecasts.

To change the map : click on the green buttons with a black cross to zoom in, on the green button with a dash to zoom out, or on the green arrows for adjacent maps.


METAR-TAF: